sensor_id;sensor_type;location;lat;lon;timestamp;pressure;altitude;pressure_sealevel;temperature;humidity
40954;BME280;26686;50.130;8.710;2023-02-15T00:00:40;101699.84;;;3.88;77.38
40954;BME280;26686;50.130;8.710;2023-02-15T00:05:41;101699.41;;;4.02;77.30
40954;BME280;26686;50.130;8.710;2023-02-15T00:10:43;101676.03;;;3.91;76.96
40954;BME280;26686;50.130;8.710;2023-02-15T00:15:44;101666.38;;;3.90;76.92
40954;BME280;26686;50.130;8.710;2023-02-15T00:20:45;101675.97;;;3.93;77.28
40954;BME280;26686;50.130;8.710;2023-02-15T00:25:47;101666.63;;;3.82;77.11
40954;BME280;26686;50.130;8.710;2023-02-15T00:30:48;101673.22;;;3.97;76.65
40954;BME280;26686;50.130;8.710;2023-02-15T00:35:56;101666.34;;;3.92;76.88
40954;BME280;26686;50.130;8.710;2023-02-15T00:41:00;101672.59;;;3.89;76.69
40954;BME280;26686;50.130;8.710;2023-02-15T00:46:03;101667.19;;;3.94;76.65
40954;BME280;26686;50.130;8.710;2023-02-15T00:51:05;101661.81;;;3.97;76.41
40954;BME280;26686;50.130;8.710;2023-02-15T00:56:07;101663.72;;;3.92;76.56
40954;BME280;26686;50.130;8.710;2023-02-15T01:01:11;101662.09;;;3.87;76.80
40954;BME280;26686;50.130;8.710;2023-02-15T01:06:14;101654.91;;;3.93;76.64
40954;BME280;26686;50.130;8.710;2023-02-15T01:11:20;101651.41;;;3.92;76.61
40954;BME280;26686;50.130;8.710;2023-02-15T01:16:27;101663.63;;;3.95;76.85
40954;BME280;26686;50.130;8.710;2023-02-15T01:21:29;101643.00;;;3.79;77.10
40954;BME280;26686;50.130;8.710;2023-02-15T01:26:30;101627.84;;;3.87;76.78
40954;BME280;26686;50.130;8.710;2023-02-15T01:31:31;101634.78;;;3.90;76.77
40954;BME280;26686;50.130;8.710;2023-02-15T01:36:34;101633.16;;;3.86;77.12
40954;BME280;26686;50.130;8.710;2023-02-15T01:41:35;101633.25;;;3.83;77.05
40954;BME280;26686;50.130;8.710;2023-02-15T01:46:40;101628.84;;;3.83;76.92
40954;BME280;26686;50.130;8.710;2023-02-15T01:51:46;101619.13;;;3.85;76.88
40954;BME280;26686;50.130;8.710;2023-02-15T01:56:50;101621.66;;;3.88;76.55
40954;BME280;26686;50.130;8.710;2023-02-15T02:01:54;101623.59;;;3.83;76.97
40954;BME280;26686;50.130;8.710;2023-02-15T02:06:57;101612.84;;;3.89;76.81
40954;BME280;26686;50.130;8.710;2023-02-15T02:12:00;101619.94;;;3.87;76.31
40954;BME280;26686;50.130;8.710;2023-02-15T02:17:18;101616.38;;;3.88;76.76
40954;BME280;26686;50.130;8.710;2023-02-15T02:27:47;101581.78;;;3.72;76.45
40954;BME280;26686;50.130;8.710;2023-02-15T02:38:13;101604.03;;;3.91;76.46
40954;BME280;26686;50.130;8.710;2023-02-15T02:43:25;101601.59;;;3.84;76.81
40954;BME280;26686;50.130;8.710;2023-02-15T02:48:32;101603.34;;;3.84;76.75
40954;BME280;26686;50.130;8.710;2023-02-15T02:53:35;101596.59;;;3.75;76.88
40954;BME280;26686;50.130;8.710;2023-02-15T02:58:42;101596.69;;;3.72;77.41
40954;BME280;26686;50.130;8.710;2023-02-15T03:03:50;101554.03;;;3.61;77.14
40954;BME280;26686;50.130;8.710;2023-02-15T03:08:58;101547.03;;;3.60;77.01
40954;BME280;26686;50.130;8.710;2023-02-15T03:14:02;101557.09;;;3.75;76.84
40954;BME280;26686;50.130;8.710;2023-02-15T03:19:15;101574.22;;;3.88;76.70
40954;BME280;26686;50.130;8.710;2023-02-15T03:24:24;101567.34;;;3.84;76.66
40954;BME280;26686;50.130;8.710;2023-02-15T03:29:28;101564.78;;;3.81;77.02
40954;BME280;26686;50.130;8.710;2023-02-15T03:34:31;101562.25;;;3.78;77.11
40954;BME280;26686;50.130;8.710;2023-02-15T03:44:55;101567.34;;;3.84;77.20
40954;BME280;26686;50.130;8.710;2023-02-15T03:50:02;101574.81;;;3.70;77.93
40954;BME280;26686;50.130;8.710;2023-02-15T03:55:27;101569.66;;;3.67;78.43
40954;BME280;26686;50.130;8.710;2023-02-15T04:00:31;101562.75;;;3.63;78.46
40954;BME280;26686;50.130;8.710;2023-02-15T04:05:55;101549.84;;;3.53;78.88
40954;BME280;26686;50.130;8.710;2023-02-15T04:10:56;101550.84;;;3.49;79.08
40954;BME280;26686;50.130;8.710;2023-02-15T04:15:58;101562.66;;;3.66;79.10
40954;BME280;26686;50.130;8.710;2023-02-15T04:21:08;101553.25;;;3.57;78.97
40954;BME280;26686;50.130;8.710;2023-02-15T04:26:27;101548.91;;;3.56;79.31
40954;BME280;26686;50.130;8.710;2023-02-15T04:31:29;101542.09;;;3.49;79.57
40954;BME280;26686;50.130;8.710;2023-02-15T04:36:30;101515.75;;;3.21;80.69
40954;BME280;26686;50.130;8.710;2023-02-15T04:41:32;101532.00;;;3.35;80.77
40954;BME280;26686;50.130;8.710;2023-02-15T04:46:34;101543.25;;;3.40;81.08
40954;BME280;26686;50.130;8.710;2023-02-15T04:51:36;101529.59;;;3.27;81.70
40954;BME280;26686;50.130;8.710;2023-02-15T04:56:37;101544.22;;;3.36;81.87
40954;BME280;26686;50.130;8.710;2023-02-15T05:01:40;101523.06;;;3.39;81.44
40954;BME280;26686;50.130;8.710;2023-02-15T05:06:41;101518.84;;;3.35;81.60
40954;BME280;26686;50.130;8.710;2023-02-15T05:11:43;101538.66;;;3.47;81.82
40954;BME280;26686;50.130;8.710;2023-02-15T05:16:44;101538.03;;;3.39;81.71
40954;BME280;26686;50.130;8.710;2023-02-15T05:21:45;101533.47;;;3.44;81.81
40954;BME280;26686;50.130;8.710;2023-02-15T05:26:47;101531.03;;;3.38;81.84
40954;BME280;26686;50.130;8.710;2023-02-15T05:32:07;101530.44;;;3.58;81.78
40954;BME280;26686;50.130;8.710;2023-02-15T05:37:08;101520.34;;;3.42;82.08
40954;BME280;26686;50.130;8.710;2023-02-15T05:42:10;101522.63;;;3.54;82.14
40954;BME280;26686;50.130;8.710;2023-02-15T05:47:11;101503.28;;;3.27;82.92
40954;BME280;26686;50.130;8.710;2023-02-15T05:52:13;101531.72;;;3.44;83.07
40954;BME280;26686;50.130;8.710;2023-02-15T05:57:14;101531.63;;;3.47;82.75
40954;BME280;26686;50.130;8.710;2023-02-15T06:02:15;101537.16;;;3.38;83.68
40954;BME280;26686;50.130;8.710;2023-02-15T06:07:17;101535.44;;;3.37;83.98
40954;BME280;26686;50.130;8.710;2023-02-15T06:12:18;101536.88;;;3.47;83.68
40954;BME280;26686;50.130;8.710;2023-02-15T06:17:20;101507.47;;;3.33;83.66
40954;BME280;26686;50.130;8.710;2023-02-15T06:22:22;101542.75;;;3.56;83.34
40954;BME280;26686;50.130;8.710;2023-02-15T06:27:24;101542.06;;;3.50;83.66
40954;BME280;26686;50.130;8.710;2023-02-15T06:32:27;101537.88;;;3.43;84.00
40954;BME280;26686;50.130;8.710;2023-02-15T06:37:30;101519.38;;;3.16;84.56
40954;BME280;26686;50.130;8.710;2023-02-15T06:42:32;101547.47;;;3.46;84.67
40954;BME280;26686;50.130;8.710;2023-02-15T06:47:33;101553.72;;;3.42;84.55
40954;BME280;26686;50.130;8.710;2023-02-15T06:52:34;101557.81;;;3.52;84.27
40954;BME280;26686;50.130;8.710;2023-02-15T06:57:36;101549.41;;;3.39;84.60
40954;BME280;26686;50.130;8.710;2023-02-15T07:02:37;101557.34;;;3.38;84.87
40954;BME280;26686;50.130;8.710;2023-02-15T07:07:39;101584.28;;;3.47;85.10
40954;BME280;26686;50.130;8.710;2023-02-15T07:12:40;101582.91;;;3.34;85.71
40954;BME280;26686;50.130;8.710;2023-02-15T07:17:46;101579.50;;;3.30;85.91
40954;BME280;26686;50.130;8.710;2023-02-15T07:22:48;101566.00;;;3.11;86.99
40954;BME280;26686;50.130;8.710;2023-02-15T07:27:56;101584.97;;;3.23;87.42
40954;BME280;26686;50.130;8.710;2023-02-15T07:32:58;101573.31;;;3.31;87.16
40954;BME280;26686;50.130;8.710;2023-02-15T07:38:18;101558.19;;;3.40;86.86
40954;BME280;26686;50.130;8.710;2023-02-15T07:43:20;101567.41;;;3.54;86.57
40954;BME280;26686;50.130;8.710;2023-02-15T07:48:21;101556.25;;;3.45;86.43
40954;BME280;26686;50.130;8.710;2023-02-15T07:53:25;101543.59;;;3.28;86.66
40954;BME280;26686;50.130;8.710;2023-02-15T07:58:27;101565.56;;;3.27;87.37
40954;BME280;26686;50.130;8.710;2023-02-15T08:03:49;101558.22;;;3.38;86.95
40954;BME280;26686;50.130;8.710;2023-02-15T08:08:50;101569.69;;;3.35;86.73
40954;BME280;26686;50.130;8.710;2023-02-15T08:19:15;101557.03;;;3.48;85.68
40954;BME280;26686;50.130;8.710;2023-02-15T08:24:22;101552.72;;;3.46;84.51
40954;BME280;26686;50.130;8.710;2023-02-15T08:29:26;101556.72;;;3.29;83.71
40954;BME280;26686;50.130;8.710;2023-02-15T08:34:36;101558.44;;;3.00;85.25
40954;BME280;26686;50.130;8.710;2023-02-15T08:39:37;101554.19;;;2.95;85.62
40954;BME280;26686;50.130;8.710;2023-02-15T08:44:39;101552.91;;;3.10;85.93
40954;BME280;26686;50.130;8.710;2023-02-15T08:49:40;101546.06;;;3.34;84.33
40954;BME280;26686;50.130;8.710;2023-02-15T08:54:42;101543.13;;;2.82;85.00
40954;BME280;26686;50.130;8.710;2023-02-15T08:59:44;101543.09;;;3.15;84.55
40954;BME280;26686;50.130;8.710;2023-02-15T09:04:46;101523.91;;;3.11;83.64
40954;BME280;26686;50.130;8.710;2023-02-15T09:09:47;101535.19;;;3.15;82.65
40954;BME280;26686;50.130;8.710;2023-02-15T09:14:48;101529.34;;;3.05;82.48
40954;BME280;26686;50.130;8.710;2023-02-15T09:19:50;101534.53;;;3.08;82.64
40954;BME280;26686;50.130;8.710;2023-02-15T09:24:51;101533.72;;;3.05;82.14
40954;BME280;26686;50.130;8.710;2023-02-15T09:29:52;101506.75;;;2.98;82.72
40954;BME280;26686;50.130;8.710;2023-02-15T09:34:54;101519.78;;;3.03;82.37
40954;BME280;26686;50.130;8.710;2023-02-15T09:39:55;101505.38;;;2.85;83.41
40954;BME280;26686;50.130;8.710;2023-02-15T09:55:20;101519.09;;;2.96;82.20
40954;BME280;26686;50.130;8.710;2023-02-15T10:00:44;101525.72;;;3.09;81.46
40954;BME280;26686;50.130;8.710;2023-02-15T10:27:21;101539.50;;;3.17;78.83
40954;BME280;26686;50.130;8.710;2023-02-15T10:32:27;101521.94;;;3.18;79.39
40954;BME280;26686;50.130;8.710;2023-02-15T10:53:45;101517.09;;;3.34;78.54
40954;BME280;26686;50.130;8.710;2023-02-15T11:09:20;101521.66;;;3.29;79.66
40954;BME280;26686;50.130;8.710;2023-02-15T11:14:43;101518.41;;;3.49;78.77
40954;BME280;26686;50.130;8.710;2023-02-15T11:24:53;101507.63;;;3.57;78.50
40954;BME280;26686;50.130;8.710;2023-02-15T11:30:02;101511.59;;;3.70;78.76
40954;BME280;26686;50.130;8.710;2023-02-15T11:40:28;101504.41;;;3.75;78.47
40954;BME280;26686;50.130;8.710;2023-02-15T11:45:33;101485.78;;;3.81;77.90
40954;BME280;26686;50.130;8.710;2023-02-15T11:50:38;101493.00;;;4.03;77.34
40954;BME280;26686;50.130;8.710;2023-02-15T11:55:42;101481.13;;;3.89;78.02
40954;BME280;26686;50.130;8.710;2023-02-15T12:00:46;101487.19;;;3.92;77.67
40954;BME280;26686;50.130;8.710;2023-02-15T12:05:56;101466.38;;;3.84;78.33
40954;BME280;26686;50.130;8.710;2023-02-15T12:11:12;101468.13;;;3.85;78.31
40954;BME280;26686;50.130;8.710;2023-02-15T12:16:16;101466.19;;;3.90;77.87
40954;BME280;26686;50.130;8.710;2023-02-15T12:21:33;101448.09;;;3.79;78.32
40954;BME280;26686;50.130;8.710;2023-02-15T12:26:35;101463.44;;;3.93;77.62
40954;BME280;26686;50.130;8.710;2023-02-15T12:31:40;101460.81;;;3.93;77.87
40954;BME280;26686;50.130;8.710;2023-02-15T12:36:46;101449.19;;;3.99;78.12
40954;BME280;26686;50.130;8.710;2023-02-15T12:47:18;101429.03;;;3.98;77.73
40954;BME280;26686;50.130;8.710;2023-02-15T12:57:23;101422.94;;;4.22;77.28
40954;BME280;26686;50.130;8.710;2023-02-15T13:07:49;101406.72;;;4.08;77.96
40954;BME280;26686;50.130;8.710;2023-02-15T13:12:52;101390.50;;;4.20;77.78
40954;BME280;26686;50.130;8.710;2023-02-15T13:17:57;101377.78;;;4.32;77.33
40954;BME280;26686;50.130;8.710;2023-02-15T13:23:03;101387.25;;;4.37;76.41
40954;BME280;26686;50.130;8.710;2023-02-15T13:28:11;101353.38;;;4.27;76.39
40954;BME280;26686;50.130;8.710;2023-02-15T13:33:24;101371.03;;;4.48;76.04
40954;BME280;26686;50.130;8.710;2023-02-15T13:44:18;101359.84;;;4.65;75.92
40954;BME280;26686;50.130;8.710;2023-02-15T13:49:47;101360.13;;;4.57;76.08
40954;BME280;26686;50.130;8.710;2023-02-15T14:00:36;101352.06;;;4.38;76.58
40954;BME280;26686;50.130;8.710;2023-02-15T14:11:02;101347.00;;;4.56;76.57
40954;BME280;26686;50.130;8.710;2023-02-15T14:16:16;101342.53;;;4.58;76.03
40954;BME280;26686;50.130;8.710;2023-02-15T14:21:32;101315.47;;;4.53;76.36
40954;BME280;26686;50.130;8.710;2023-02-15T14:26:51;101334.69;;;4.56;76.06
40954;BME280;26686;50.130;8.710;2023-02-15T14:32:02;101327.41;;;4.63;76.18
40954;BME280;26686;50.130;8.710;2023-02-15T14:37:05;101270.59;;;4.31;76.18
40954;BME280;26686;50.130;8.710;2023-02-15T14:42:34;101315.34;;;4.56;77.01
40954;BME280;26686;50.130;8.710;2023-02-15T14:47:40;101318.06;;;4.54;76.76
40954;BME280;26686;50.130;8.710;2023-02-15T15:03:56;101311.88;;;4.55;76.50
40954;BME280;26686;50.130;8.710;2023-02-15T15:09:00;101316.44;;;4.50;77.46
40954;BME280;26686;50.130;8.710;2023-02-15T15:14:02;101302.53;;;4.47;77.27
40954;BME280;26686;50.130;8.710;2023-02-15T15:19:09;101310.25;;;4.51;77.27
40954;BME280;26686;50.130;8.710;2023-02-15T15:29:40;101322.72;;;4.48;78.49
40954;BME280;26686;50.130;8.710;2023-02-15T15:34:54;101308.47;;;4.52;78.18
40954;BME280;26686;50.130;8.710;2023-02-15T15:50:39;101303.97;;;4.32;79.06
40954;BME280;26686;50.130;8.710;2023-02-15T15:55:41;101294.13;;;4.37;78.91
40954;BME280;26686;50.130;8.710;2023-02-15T16:01:08;101311.28;;;4.47;78.63
40954;BME280;26686;50.130;8.710;2023-02-15T16:06:13;101306.47;;;4.35;79.77
40954;BME280;26686;50.130;8.710;2023-02-15T16:11:22;101309.00;;;4.38;79.92
40954;BME280;26686;50.130;8.710;2023-02-15T16:16:27;101304.94;;;4.29;80.23
40954;BME280;26686;50.130;8.710;2023-02-15T16:21:31;101296.75;;;4.37;80.04
40954;BME280;26686;50.130;8.710;2023-02-15T16:37:18;101301.38;;;4.30;81.21
40954;BME280;26686;50.130;8.710;2023-02-15T16:42:21;101312.72;;;4.32;81.17
40954;BME280;26686;50.130;8.710;2023-02-15T16:47:25;101313.59;;;4.09;82.36
40954;BME280;26686;50.130;8.710;2023-02-15T16:52:28;101297.88;;;4.06;82.56
40954;BME280;26686;50.130;8.710;2023-02-15T16:57:34;101293.94;;;3.94;83.20
40954;BME280;26686;50.130;8.710;2023-02-15T17:02:36;101298.00;;;4.03;83.30
40954;BME280;26686;50.130;8.710;2023-02-15T17:08:11;101305.13;;;4.01;83.67
40954;BME280;26686;50.130;8.710;2023-02-15T17:13:15;101312.09;;;4.02;83.77
40954;BME280;26686;50.130;8.710;2023-02-15T17:18:22;101313.16;;;3.96;84.17
40954;BME280;26686;50.130;8.710;2023-02-15T17:23:41;101325.38;;;3.99;84.20
40954;BME280;26686;50.130;8.710;2023-02-15T17:28:49;101312.31;;;3.96;83.43
40954;BME280;26686;50.130;8.710;2023-02-15T17:33:52;101321.84;;;4.00;83.18
40954;BME280;26686;50.130;8.710;2023-02-15T17:39:06;101322.50;;;4.05;82.71
40954;BME280;26686;50.130;8.710;2023-02-15T17:44:11;101325.84;;;4.10;82.68
40954;BME280;26686;50.130;8.710;2023-02-15T17:49:24;101321.16;;;3.93;82.81
40954;BME280;26686;50.130;8.710;2023-02-15T17:54:27;101311.03;;;3.82;82.92
40954;BME280;26686;50.130;8.710;2023-02-15T17:59:47;101306.59;;;3.84;83.06
40954;BME280;26686;50.130;8.710;2023-02-15T18:05:12;101309.78;;;3.93;82.62
40954;BME280;26686;50.130;8.710;2023-02-15T18:10:33;101291.34;;;3.93;82.76
40954;BME280;26686;50.130;8.710;2023-02-15T18:15:54;101316.22;;;4.09;82.41
40954;BME280;26686;50.130;8.710;2023-02-15T18:20:56;101300.47;;;4.07;82.19
40954;BME280;26686;50.130;8.710;2023-02-15T18:25:57;101311.91;;;4.06;82.40
40954;BME280;26686;50.130;8.710;2023-02-15T18:30:59;101312.88;;;3.80;83.74
40954;BME280;26686;50.130;8.710;2023-02-15T18:36:03;101317.91;;;3.86;83.80
40954;BME280;26686;50.130;8.710;2023-02-15T18:41:06;101309.28;;;3.81;83.08
40954;BME280;26686;50.130;8.710;2023-02-15T18:46:08;101300.66;;;3.78;83.27
40954;BME280;26686;50.130;8.710;2023-02-15T18:51:18;101305.13;;;3.76;83.60
40954;BME280;26686;50.130;8.710;2023-02-15T18:56:21;101316.41;;;3.79;83.36
40954;BME280;26686;50.130;8.710;2023-02-15T19:01:23;101272.84;;;3.45;83.65
40954;BME280;26686;50.130;8.710;2023-02-15T19:06:24;101320.59;;;3.60;84.00
40954;BME280;26686;50.130;8.710;2023-02-15T19:11:27;101317.78;;;3.64;83.76
40954;BME280;26686;50.130;8.710;2023-02-15T19:16:32;101311.00;;;3.57;84.40
40954;BME280;26686;50.130;8.710;2023-02-15T19:21:34;101305.53;;;3.63;84.12
40954;BME280;26686;50.130;8.710;2023-02-15T19:26:37;101301.56;;;3.77;84.04
40954;BME280;26686;50.130;8.710;2023-02-15T19:31:46;101315.16;;;3.89;83.21
40954;BME280;26686;50.130;8.710;2023-02-15T19:36:50;101308.16;;;3.65;83.80
40954;BME280;26686;50.130;8.710;2023-02-15T19:41:52;101322.22;;;3.64;83.82
40954;BME280;26686;50.130;8.710;2023-02-15T19:46:54;101325.38;;;3.48;84.53
40954;BME280;26686;50.130;8.710;2023-02-15T19:51:56;101326.19;;;3.50;85.22
40954;BME280;26686;50.130;8.710;2023-02-15T19:56:59;101305.22;;;3.47;84.55
40954;BME280;26686;50.130;8.710;2023-02-15T20:02:00;101321.00;;;3.47;84.62
40954;BME280;26686;50.130;8.710;2023-02-15T20:07:06;101315.66;;;3.50;84.35
40954;BME280;26686;50.130;8.710;2023-02-15T20:12:28;101323.88;;;3.66;83.81
40954;BME280;26686;50.130;8.710;2023-02-15T20:17:30;101312.84;;;3.55;83.93
40954;BME280;26686;50.130;8.710;2023-02-15T20:22:31;101333.00;;;3.56;84.52
40954;BME280;26686;50.130;8.710;2023-02-15T20:27:34;101325.84;;;3.60;84.71
40954;BME280;26686;50.130;8.710;2023-02-15T20:32:37;101321.88;;;3.73;83.75
40954;BME280;26686;50.130;8.710;2023-02-15T20:37:39;101311.50;;;3.68;83.63
40954;BME280;26686;50.130;8.710;2023-02-15T20:42:40;101316.63;;;3.73;83.16
40954;BME280;26686;50.130;8.710;2023-02-15T20:47:41;101311.47;;;3.70;83.16
40954;BME280;26686;50.130;8.710;2023-02-15T20:52:50;101328.78;;;3.77;83.41
40954;BME280;26686;50.130;8.710;2023-02-15T20:57:52;101318.75;;;3.62;83.82
40954;BME280;26686;50.130;8.710;2023-02-15T21:02:58;101317.84;;;3.63;84.16
40954;BME280;26686;50.130;8.710;2023-02-15T21:08:00;101297.53;;;3.41;84.70
40954;BME280;26686;50.130;8.710;2023-02-15T21:13:02;101305.47;;;3.66;84.24
40954;BME280;26686;50.130;8.710;2023-02-15T21:18:11;101317.69;;;3.67;83.90
40954;BME280;26686;50.130;8.710;2023-02-15T21:23:18;101321.44;;;3.60;84.04
40954;BME280;26686;50.130;8.710;2023-02-15T21:28:22;101303.16;;;3.56;84.15
40954;BME280;26686;50.130;8.710;2023-02-15T21:33:25;101289.31;;;3.50;84.12
40954;BME280;26686;50.130;8.710;2023-02-15T21:38:28;101324.75;;;3.67;84.23
40954;BME280;26686;50.130;8.710;2023-02-15T21:43:31;101309.78;;;3.67;83.62
40954;BME280;26686;50.130;8.710;2023-02-15T21:48:51;101307.22;;;3.66;83.96
40954;BME280;26686;50.130;8.710;2023-02-15T21:53:52;101326.81;;;3.82;83.76
40954;BME280;26686;50.130;8.710;2023-02-15T21:58:53;101329.09;;;3.68;84.10
40954;BME280;26686;50.130;8.710;2023-02-15T22:03:56;101330.69;;;3.72;84.31
40954;BME280;26686;50.130;8.710;2023-02-15T22:08:58;101329.22;;;3.63;84.11
40954;BME280;26686;50.130;8.710;2023-02-15T22:14:00;101323.22;;;3.60;84.33
40954;BME280;26686;50.130;8.710;2023-02-15T22:19:02;101312.97;;;3.52;84.83
40954;BME280;26686;50.130;8.710;2023-02-15T22:24:03;101318.97;;;3.56;85.04
40954;BME280;26686;50.130;8.710;2023-02-15T22:29:05;101306.72;;;3.54;84.98
40954;BME280;26686;50.130;8.710;2023-02-15T22:34:22;101308.53;;;3.52;85.23
40954;BME280;26686;50.130;8.710;2023-02-15T22:39:25;101309.25;;;3.58;85.29
40954;BME280;26686;50.130;8.710;2023-02-15T22:44:28;101306.63;;;3.58;85.20
40954;BME280;26686;50.130;8.710;2023-02-15T22:49:32;101267.84;;;3.36;84.95
40954;BME280;26686;50.130;8.710;2023-02-15T22:54:33;101310.72;;;3.66;84.75
40954;BME280;26686;50.130;8.710;2023-02-15T22:59:35;101296.41;;;3.48;84.99
40954;BME280;26686;50.130;8.710;2023-02-15T23:04:36;101303.88;;;3.61;84.78
40954;BME280;26686;50.130;8.710;2023-02-15T23:09:37;101293.81;;;3.72;84.55
40954;BME280;26686;50.130;8.710;2023-02-15T23:14:39;101299.03;;;3.74;84.33
40954;BME280;26686;50.130;8.710;2023-02-15T23:19:40;101304.34;;;3.72;84.43
40954;BME280;26686;50.130;8.710;2023-02-15T23:24:42;101294.03;;;3.66;84.50
40954;BME280;26686;50.130;8.710;2023-02-15T23:29:46;101290.06;;;3.54;85.30
40954;BME280;26686;50.130;8.710;2023-02-15T23:34:47;101297.16;;;3.52;85.72
40954;BME280;26686;50.130;8.710;2023-02-15T23:39:50;101286.91;;;3.44;85.87
40954;BME280;26686;50.130;8.710;2023-02-15T23:45:20;101299.31;;;3.66;85.16
40954;BME280;26686;50.130;8.710;2023-02-15T23:50:27;101294.78;;;3.44;86.15
40954;BME280;26686;50.130;8.710;2023-02-15T23:55:34;101309.13;;;3.35;86.76
